Time;durP1;ratioP1;P1;durP2;ratioP2;P2;SDS_P1;SDS_P2;PMS_P1;PMS_P2;Temp;Humidity;BMP_temperature;BMP_pressure;BME280_temperature;BME280_humidity;BME280_pressure;Samples;Min_cycle;Max_cycle;Signal;HPM_P1;HPM_P2
2022/01/27 00:05:33;;;;;;;43.17;13.77;;;;;;;;;;5030752;28;20107;-47
2022/01/27 00:10:53;;;;;;;43.05;14.48;;;;;;;;;;5023597;28;20128;-50
2022/01/27 00:13:24;;;;;;;48.25;15.15;;;;;;;;;;5030091;28;20030;-48
2022/01/27 00:15:59;;;;;;;38.88;14.02;;;;;;;;;;5030305;28;20056;-48
2022/01/27 00:18:25;;;;;;;42.58;13.60;;;;;;;;;;5026731;28;20128;-47
2022/01/27 00:20:51;;;;;;;47.70;14.73;;;;;;;;;;5025163;28;20100;-47
2022/01/27 00:23:17;;;;;;;43.10;13.60;;;;;;;;;;5019728;28;20025;-50
2022/01/27 00:25:43;;;;;;;45.75;14.23;;;;;;;;;;5022532;28;20030;-53
2022/01/27 00:28:09;;;;;;;39.13;13.15;;;;;;;;;;5026129;28;20136;-51
2022/01/27 00:30:36;;;;;;;41.30;14.43;;;;;;;;;;5026942;28;20025;-50
2022/01/27 00:33:03;;;;;;;39.47;13.45;;;;;;;;;;5026243;28;20500;-49
2022/01/27 00:35:29;;;;;;;43.72;15.43;;;;;;;;;;5030933;28;20073;-51
2022/01/27 00:37:55;;;;;;;38.13;14.68;;;;;;;;;;5033625;28;20038;-48
2022/01/27 00:40:22;;;;;;;43.05;13.10;;;;;;;;;;5018646;28;20137;-50
2022/01/27 00:42:48;;;;;;;34.97;11.80;;;;;;;;;;5027608;28;20441;-51
2022/01/27 00:45:14;;;;;;;38.10;13.18;;;;;;;;;;5022159;28;20425;-50
2022/01/27 00:47:40;;;;;;;38.65;13.02;;;;;;;;;;5026154;28;20493;-50
2022/01/27 00:50:08;;;;;;;39.30;12.88;;;;;;;;;;5023108;28;20494;-48
2022/01/27 00:52:39;;;;;;;41.28;13.27;;;;;;;;;;5020308;28;20485;-49
2022/01/27 00:55:06;;;;;;;39.22;14.57;;;;;;;;;;5022031;28;20033;-48
2022/01/27 00:57:59;;;;;;;33.50;12.23;;;;;;;;;;5026274;28;20029;-50
2022/01/27 01:00:30;;;;;;;39.38;12.35;;;;;;;;;;5029192;28;20107;-53
2022/01/27 01:03:10;;;;;;;42.55;13.38;;;;;;;;;;5028030;28;20638;-48
2022/01/27 01:09:22;;;;;;;34.25;11.35;;;;;;;;;;5026394;28;20103;-49
2022/01/27 01:19:03;;;;;;;36.53;11.93;;;;;;;;;;5028103;28;20034;-48
2022/01/27 01:34:30;;;;;;;30.48;10.98;;;;;;;;;;5034243;28;20034;-50
2022/01/27 01:37:01;;;;;;;35.42;11.75;;;;;;;;;;5035491;28;20049;-50
2022/01/27 01:39:29;;;;;;;27.55;10.00;;;;;;;;;;5030212;28;20056;-48
2022/01/27 01:41:55;;;;;;;26.30;10.27;;;;;;;;;;5023619;28;20484;-51
2022/01/27 01:44:22;;;;;;;31.60;11.63;;;;;;;;;;5033547;28;20486;-48
2022/01/27 01:46:47;;;;;;;30.00;11.35;;;;;;;;;;5014012;28;20034;-47
2022/01/27 01:49:13;;;;;;;27.55;9.55;;;;;;;;;;5023588;28;20034;-47
2022/01/27 01:51:43;;;;;;;26.80;9.57;;;;;;;;;;5027837;28;20034;-48
2022/01/27 01:54:09;;;;;;;26.92;9.95;;;;;;;;;;5022452;28;20073;-49
2022/01/27 01:56:35;;;;;;;22.35;9.63;;;;;;;;;;5018978;28;20076;-48
2022/01/27 01:59:01;;;;;;;23.40;8.98;;;;;;;;;;5019378;28;20557;-48
2022/01/27 02:01:27;;;;;;;26.23;10.27;;;;;;;;;;5025281;28;20396;-48
2022/01/27 02:03:54;;;;;;;27.00;9.65;;;;;;;;;;5021112;28;20249;-51
2022/01/27 02:06:31;;;;;;;26.02;9.30;;;;;;;;;;5026432;28;20037;-50
2022/01/27 02:09:28;;;;;;;27.75;9.80;;;;;;;;;;5031221;28;20413;-52
2022/01/27 02:20:09;;;;;;;22.15;9.45;;;;;;;;;;5025701;28;20056;-48
2022/01/27 02:22:35;;;;;;;23.02;8.43;;;;;;;;;;5026201;28;20041;-48
2022/01/27 02:25:02;;;;;;;21.05;8.07;;;;;;;;;;5016012;28;20382;-48
2022/01/27 02:27:28;;;;;;;25.63;8.50;;;;;;;;;;5016319;28;20037;-51
2022/01/27 02:29:54;;;;;;;20.42;8.75;;;;;;;;;;5026741;28;20068;-48
2022/01/27 02:32:22;;;;;;;22.58;9.20;;;;;;;;;;5028451;28;20038;-53
2022/01/27 02:34:48;;;;;;;23.08;8.85;;;;;;;;;;5020476;28;20040;-48
2022/01/27 02:37:14;;;;;;;25.85;9.88;;;;;;;;;;5040159;28;20053;-48
2022/01/27 02:39:40;;;;;;;21.67;8.70;;;;;;;;;;5027060;28;20058;-53
2022/01/27 02:42:21;;;;;;;18.52;8.30;;;;;;;;;;5015245;28;20077;-50
2022/01/27 02:44:47;;;;;;;18.80;9.02;;;;;;;;;;5020639;28;20075;-51
2022/01/27 02:47:13;;;;;;;22.05;8.75;;;;;;;;;;5033298;28;20025;-49
2022/01/27 02:49:39;;;;;;;21.88;9.13;;;;;;;;;;5027071;28;20108;-48
2022/01/27 02:52:06;;;;;;;18.42;8.18;;;;;;;;;;5022557;28;20033;-48
2022/01/27 02:54:32;;;;;;;21.95;9.10;;;;;;;;;;5031276;28;20649;-47
2022/01/27 02:56:58;;;;;;;23.08;8.63;;;;;;;;;;5028696;28;20127;-51
2022/01/27 02:59:24;;;;;;;23.25;9.57;;;;;;;;;;5016245;28;20061;-48
2022/01/27 03:01:51;;;;;;;25.52;9.10;;;;;;;;;;5019974;28;20104;-48
2022/01/27 03:04:17;;;;;;;21.13;9.07;;;;;;;;;;5031228;28;20048;-47
2022/01/27 03:06:44;;;;;;;22.80;8.30;;;;;;;;;;5028782;28;20038;-49
2022/01/27 03:09:10;;;;;;;20.10;8.30;;;;;;;;;;5022531;28;20042;-48
2022/01/27 03:11:47;;;;;;;20.83;8.48;;;;;;;;;;5026301;28;20135;-50
2022/01/27 03:14:23;;;;;;;23.20;8.38;;;;;;;;;;5031587;28;20468;-50
2022/01/27 03:16:50;;;;;;;20.98;8.65;;;;;;;;;;5025387;28;20021;-49
2022/01/27 03:19:16;;;;;;;21.58;8.82;;;;;;;;;;5032685;28;20026;-52
2022/01/27 03:21:42;;;;;;;25.23;9.38;;;;;;;;;;5026523;28;20075;-51
2022/01/27 03:24:08;;;;;;;21.85;8.63;;;;;;;;;;5018493;28;20096;-49
2022/01/27 03:26:34;;;;;;;22.92;9.00;;;;;;;;;;5028970;28;20116;-50
2022/01/27 03:29:00;;;;;;;14.88;7.13;;;;;;;;;;5028025;28;20029;-48
2022/01/27 03:31:27;;;;;;;21.58;8.35;;;;;;;;;;5020366;28;20091;-49
2022/01/27 03:33:53;;;;;;;22.83;8.63;;;;;;;;;;5012958;28;20091;-50
2022/01/27 03:36:19;;;;;;;18.40;8.38;;;;;;;;;;5028586;28;20081;-49
2022/01/27 03:38:45;;;;;;;17.27;8.25;;;;;;;;;;5037543;28;20629;-48
2022/01/27 03:41:12;;;;;;;22.23;9.07;;;;;;;;;;5014897;28;20033;-50
2022/01/27 03:43:39;;;;;;;23.13;9.18;;;;;;;;;;5026147;28;20032;-48
2022/01/27 03:46:06;;;;;;;19.00;8.52;;;;;;;;;;5024268;28;20018;-48
2022/01/27 03:48:32;;;;;;;20.52;8.48;;;;;;;;;;5023342;28;20109;-51
2022/01/27 03:50:57;;;;;;;16.25;8.00;;;;;;;;;;5023262;28;20095;-52
2022/01/27 03:53:24;;;;;;;19.27;8.50;;;;;;;;;;5030904;28;20034;-51
2022/01/27 03:55:50;;;;;;;16.98;7.35;;;;;;;;;;5028231;28;20033;-47
2022/01/27 03:58:16;;;;;;;17.42;8.05;;;;;;;;;;5024942;28;20037;-48
2022/01/27 04:00:42;;;;;;;17.40;7.35;;;;;;;;;;5021000;28;20029;-50
2022/01/27 04:03:09;;;;;;;16.98;8.40;;;;;;;;;;5021908;28;20025;-48
2022/01/27 04:05:38;;;;;;;16.15;7.78;;;;;;;;;;5029407;28;20021;-50
2022/01/27 04:08:05;;;;;;;19.13;8.27;;;;;;;;;;5032271;28;20037;-49
2022/01/27 04:10:31;;;;;;;14.98;7.18;;;;;;;;;;5025562;28;20343;-51
2022/01/27 04:12:57;;;;;;;22.45;7.55;;;;;;;;;;5023719;28;20105;-48
2022/01/27 04:15:23;;;;;;;17.48;7.45;;;;;;;;;;5025721;28;20175;-47
2022/01/27 04:17:49;;;;;;;13.90;6.90;;;;;;;;;;5024755;28;20079;-47
2022/01/27 04:20:15;;;;;;;17.40;7.95;;;;;;;;;;5019403;28;20498;-49
2022/01/27 04:22:42;;;;;;;14.77;7.53;;;;;;;;;;5029572;28;20120;-49
2022/01/27 04:25:08;;;;;;;18.13;7.50;;;;;;;;;;5021558;28;20040;-51
2022/01/27 04:27:37;;;;;;;16.95;6.55;;;;;;;;;;5021153;28;20039;-49
2022/01/27 04:30:05;;;;;;;17.20;6.70;;;;;;;;;;5018069;28;20026;-49
2022/01/27 04:32:39;;;;;;;13.35;6.68;;;;;;;;;;5030052;28;20077;-52
2022/01/27 04:35:07;;;;;;;11.65;5.90;;;;;;;;;;5029288;28;20486;-49
2022/01/27 04:37:39;;;;;;;20.88;6.28;;;;;;;;;;5026003;28;20026;-48
2022/01/27 04:40:12;;;;;;;13.38;6.28;;;;;;;;;;5025001;28;20071;-48
2022/01/27 04:43:05;;;;;;;12.77;5.25;;;;;;;;;;5029888;28;20413;-47
2022/01/27 04:45:41;;;;;;;13.30;5.97;;;;;;;;;;5020337;28;20072;-53
2022/01/27 04:48:14;;;;;;;12.60;5.65;;;;;;;;;;5018634;28;20041;-52
2022/01/27 04:50:40;;;;;;;13.60;6.10;;;;;;;;;;5025815;28;20026;-52
2022/01/27 04:53:11;;;;;;;11.30;5.82;;;;;;;;;;5019722;28;20030;-51
2022/01/27 04:55:38;;;;;;;12.20;6.07;;;;;;;;;;5026034;28;20032;-48
2022/01/27 04:58:12;;;;;;;10.07;5.47;;;;;;;;;;5022995;28;20266;-47
2022/01/27 05:00:38;;;;;;;10.70;5.55;;;;;;;;;;5022881;28;20061;-47
2022/01/27 05:03:14;;;;;;;10.13;5.00;;;;;;;;;;5030635;28;20109;-52
2022/01/27 05:05:40;;;;;;;15.43;5.53;;;;;;;;;;5025166;28;20026;-51
2022/01/27 05:08:10;;;;;;;12.25;5.25;;;;;;;;;;5026169;28;20040;-48
2022/01/27 05:10:36;;;;;;;8.68;5.05;;;;;;;;;;5020093;28;20029;-47
2022/01/27 05:13:10;;;;;;;9.73;4.60;;;;;;;;;;5032164;28;20087;-47
2022/01/27 05:15:43;;;;;;;11.10;5.57;;;;;;;;;;5033052;28;20098;-48
2022/01/27 05:18:09;;;;;;;10.53;5.53;;;;;;;;;;5030122;28;20190;-47
2022/01/27 05:20:35;;;;;;;12.00;5.50;;;;;;;;;;5028881;28;20044;-48
2022/01/27 05:23:01;;;;;;;12.50;5.50;;;;;;;;;;5033925;28;20033;-51
2022/01/27 05:25:27;;;;;;;12.63;5.75;;;;;;;;;;5030939;28;20030;-48
2022/01/27 05:27:52;;;;;;;13.85;6.10;;;;;;;;;;5023833;28;20148;-49
2022/01/27 05:30:19;;;;;;;11.93;5.93;;;;;;;;;;5021864;28;20033;-48
2022/01/27 05:32:45;;;;;;;11.57;5.43;;;;;;;;;;5025094;28;20045;-49
2022/01/27 05:35:11;;;;;;;15.15;6.10;;;;;;;;;;5021844;28;20029;-51
2022/01/27 05:37:37;;;;;;;16.38;6.53;;;;;;;;;;5027327;28;20569;-50
2022/01/27 05:40:03;;;;;;;14.95;5.60;;;;;;;;;;5028375;28;20032;-51
2022/01/27 05:42:29;;;;;;;16.85;6.70;;;;;;;;;;5019801;28;20022;-49
2022/01/27 05:44:55;;;;;;;15.65;6.78;;;;;;;;;;5026362;28;20430;-52
2022/01/27 05:47:21;;;;;;;13.38;6.32;;;;;;;;;;5031117;28;20116;-49
2022/01/27 05:49:47;;;;;;;14.40;7.43;;;;;;;;;;5025381;28;20734;-51
2022/01/27 05:52:13;;;;;;;14.02;6.70;;;;;;;;;;5030531;28;20037;-48
2022/01/27 05:54:39;;;;;;;15.95;6.68;;;;;;;;;;5030466;28;20029;-47
2022/01/27 05:57:05;;;;;;;15.60;6.75;;;;;;;;;;5020981;28;20100;-48
2022/01/27 05:59:31;;;;;;;16.58;7.10;;;;;;;;;;5032697;28;20101;-49
2022/01/27 06:01:57;;;;;;;16.35;7.50;;;;;;;;;;5022277;28;20101;-49
2022/01/27 06:04:23;;;;;;;17.60;7.78;;;;;;;;;;5026918;28;20033;-47
2022/01/27 06:06:50;;;;;;;16.40;7.07;;;;;;;;;;5022409;28;20125;-50
2022/01/27 06:09:15;;;;;;;12.93;7.18;;;;;;;;;;5021222;28;20038;-48
2022/01/27 06:11:41;;;;;;;14.40;7.30;;;;;;;;;;5029391;28;20037;-53
2022/01/27 06:14:07;;;;;;;14.85;8.15;;;;;;;;;;5025747;28;20109;-52
2022/01/27 06:16:33;;;;;;;16.40;7.35;;;;;;;;;;5031685;28;20512;-49
2022/01/27 06:19:02;;;;;;;17.40;8.65;;;;;;;;;;5020194;28;20041;-48
2022/01/27 06:21:28;;;;;;;21.08;8.85;;;;;;;;;;5026277;28;20585;-47
2022/01/27 06:23:54;;;;;;;15.55;8.38;;;;;;;;;;5026786;28;20021;-51
2022/01/27 06:26:20;;;;;;;19.58;8.23;;;;;;;;;;5019107;28;20030;-47
2022/01/27 06:28:46;;;;;;;18.02;8.88;;;;;;;;;;5027549;28;20026;-50
2022/01/27 06:31:12;;;;;;;20.90;9.00;;;;;;;;;;5026927;28;20021;-50
2022/01/27 06:33:38;;;;;;;19.63;9.18;;;;;;;;;;5019987;28;20032;-50
2022/01/27 06:36:04;;;;;;;19.20;9.95;;;;;;;;;;5034203;28;20473;-48
2022/01/27 06:38:30;;;;;;;35.13;16.55;;;;;;;;;;5027048;28;20034;-48
2022/01/27 06:40:56;;;;;;;25.35;9.85;;;;;;;;;;5019117;28;20033;-48
2022/01/27 06:43:22;;;;;;;22.65;11.00;;;;;;;;;;5016832;28;20033;-53
2022/01/27 06:45:48;;;;;;;26.63;12.27;;;;;;;;;;5017699;28;20450;-51
2022/01/27 06:48:14;;;;;;;24.52;10.68;;;;;;;;;;5029394;28;20041;-48
2022/01/27 06:50:41;;;;;;;25.27;10.65;;;;;;;;;;5027327;28;20026;-47
2022/01/27 06:53:07;;;;;;;22.85;11.88;;;;;;;;;;5023498;28;20060;-51
2022/01/27 06:55:33;;;;;;;31.90;13.02;;;;;;;;;;5028741;28;20040;-48
2022/01/27 06:57:59;;;;;;;29.05;12.07;;;;;;;;;;5024073;28;20033;-48
2022/01/27 07:00:25;;;;;;;31.38;12.05;;;;;;;;;;5020248;28;20048;-49
2022/01/27 07:02:51;;;;;;;26.92;11.68;;;;;;;;;;5025082;28;20030;-49
2022/01/27 07:05:18;;;;;;;29.88;13.07;;;;;;;;;;5032639;28;20029;-47
2022/01/27 07:07:44;;;;;;;28.85;12.40;;;;;;;;;;5019910;28;20116;-49
2022/01/27 07:10:10;;;;;;;31.48;13.07;;;;;;;;;;5024656;28;20076;-49
2022/01/27 07:12:39;;;;;;;35.97;14.40;;;;;;;;;;5028578;28;20033;-50
2022/01/27 07:15:05;;;;;;;30.63;13.30;;;;;;;;;;5022104;28;20450;-51
2022/01/27 07:17:31;;;;;;;31.33;13.57;;;;;;;;;;5028464;28;20025;-48
2022/01/27 07:19:57;;;;;;;29.80;14.13;;;;;;;;;;5025406;28;20071;-52
2022/01/27 07:22:23;;;;;;;38.15;14.40;;;;;;;;;;5028314;28;20045;-49
2022/01/27 07:24:49;;;;;;;42.10;15.07;;;;;;;;;;5020359;28;20018;-52
2022/01/27 07:27:15;;;;;;;34.03;14.32;;;;;;;;;;5025470;28;20112;-51
2022/01/27 07:29:41;;;;;;;37.80;15.45;;;;;;;;;;5025279;28;20025;-47
2022/01/27 07:32:07;;;;;;;40.03;15.35;;;;;;;;;;5019055;28;20034;-49
2022/01/27 07:34:33;;;;;;;35.40;15.20;;;;;;;;;;5018951;28;20160;-52
2022/01/27 07:37:01;;;;;;;40.72;16.88;;;;;;;;;;5033652;28;20042;-49
2022/01/27 07:39:27;;;;;;;41.40;17.08;;;;;;;;;;5019543;28;20386;-50
2022/01/27 07:41:56;;;;;;;46.80;20.70;;;;;;;;;;5019149;28;20435;-48
2022/01/27 07:44:22;;;;;;;39.17;16.77;;;;;;;;;;5027922;28;20049;-48
2022/01/27 07:46:48;;;;;;;41.78;17.55;;;;;;;;;;5028927;28;20540;-48
2022/01/27 07:49:14;;;;;;;40.92;16.50;;;;;;;;;;5015347;28;20648;-50
2022/01/27 07:51:40;;;;;;;41.28;17.17;;;;;;;;;;5024622;28;20030;-51
2022/01/27 07:54:06;;;;;;;41.55;17.92;;;;;;;;;;5020490;28;20450;-49
2022/01/27 07:56:32;;;;;;;43.90;17.35;;;;;;;;;;5031641;28;20171;-48
2022/01/27 07:58:58;;;;;;;40.35;16.83;;;;;;;;;;5015338;28;20084;-47
2022/01/27 08:01:24;;;;;;;39.97;15.77;;;;;;;;;;5027179;28;20026;-48
2022/01/27 08:03:50;;;;;;;39.95;16.52;;;;;;;;;;5020779;28;20075;-48
2022/01/27 08:06:16;;;;;;;41.35;17.58;;;;;;;;;;5026511;28;20100;-50
2022/01/27 08:08:43;;;;;;;39.42;16.25;;;;;;;;;;5020539;28;20029;-49
2022/01/27 08:11:09;;;;;;;40.65;16.75;;;;;;;;;;5020077;28;20070;-48
2022/01/27 08:13:36;;;;;;;44.88;16.10;;;;;;;;;;5026464;28;20029;-48
2022/01/27 08:16:02;;;;;;;41.72;17.40;;;;;;;;;;5020377;28;20017;-47
2022/01/27 08:18:28;;;;;;;42.13;15.25;;;;;;;;;;5019748;28;20030;-49
2022/01/27 08:20:54;;;;;;;35.38;15.75;;;;;;;;;;5022372;28;20037;-48
2022/01/27 08:23:21;;;;;;;37.08;15.73;;;;;;;;;;5020472;28;20105;-49
2022/01/27 08:26:00;;;;;;;35.72;15.38;;;;;;;;;;5026917;28;20113;-57
2022/01/27 08:28:31;;;;;;;38.65;15.05;;;;;;;;;;5021234;28;20030;-57
2022/01/27 08:30:58;;;;;;;40.28;16.10;;;;;;;;;;5019307;28;20025;-55
